Trust_79 — 9G-JP — position and weather

sailwx.info

Track history (hours):
 
Tides and Currents Weather Stations Pressure Air Temp Water Temp Dewpoint Dewpoint Depression Visibility Wind Speed Wind Dir Waves Ship Positions

Trust_79

Last reported at 2018-Jun-22 02:30 UTC. Time now 2018-Jun-22 07:36 UTC.
Position N 05°15' W 000°38'.

Length 54 m.

Type: Fishing. MMSI: 627850000.

Date/timePositionNaut miles runAvg speedWind from/ knotsBaromVisibWave heightAir tempDewpointWater temp
2018-Jun-22 02:30N 05°15' W 000°38'0 0.0
2018-Jun-22 01:54N 05°15' W 000°38'0 0.0
2018-Jun-22 01:30N 05°15' W 000°38'0 0.0
2018-Jun-22 00:18N 05°15' W 000°38'0 0.0
2018-Jun-21 23:48N 05°15' W 000°38'2 0.1
2018-Jun-21 06:10N 05°15' W 000°37'0 0.0
2018-Jun-19 23:07N 05°16' W 000°37'0 0.0
2018-Jun-19 22:34N 05°16' W 000°37'0 0.0
2018-Jun-19 21:57N 05°16' W 000°37'0 0.0
2018-Jun-19 21:29N 05°16' W 000°37'0 0.0
2018-Jun-19 10:22N 05°16' W 000°36'1 0.2
2018-Jun-19 06:58N 05°15' W 000°37'1 2.1
2018-Jun-19 06:31N 05°15' W 000°38'3 5.2
2018-Jun-19 05:58N 05°17' W 000°36'0 0.0
2018-Jun-19 05:30N 05°17' W 000°36'0 0.0
2018-Jun-19 03:52N 05°17' W 000°36'0 0.0
2018-Jun-19 03:30N 05°17' W 000°36'0 0.0
2018-Jun-19 03:01N 05°17' W 000°36'0 0.0
2018-Jun-19 02:29N 05°17' W 000°36'8 0.4
2018-Jun-18 07:03N 05°21' W 000°29'1 9.0
2018-Jun-18 06:58N 05°22' W 000°28'4 5.2
2018-Jun-18 06:14N 05°23' W 000°25'0 0.2
2018-Jun-18 05:59N 05°23' W 000°25'5 0.3
2018-Jun-17 09:44N 05°18' W 000°23'2 9.0
2018-Jun-17 09:30N 05°20' W 000°22'5 9.1
2018-Jun-17 09:00N 05°25' W 000°22'1 3.0
2018-Jun-17 08:31N 05°25' W 000°24'2 3.0
2018-Jun-17 07:48N 05°24' W 000°25'1 1.9
2018-Jun-17 07:06N 05°23' W 000°26'1 5.9
2018-Jun-17 06:57N 05°23' W 000°25'0 0.8
2018-Jun-17 06:25N 05°23' W 000°25'0 0.9
2018-Jun-17 06:00N 05°23' W 000°25'0 0.1
2018-Jun-17 05:30N 05°23' W 000°25'0 0.0
2018-Jun-17 05:01N 05°23' W 000°25'0 0.0
2018-Jun-17 04:30N 05°23' W 000°25'0 0.0
2018-Jun-17 04:00N 05°23' W 000°25'0 0.0
2018-Jun-17 03:31N 05°23' W 000°25'0 0.0
2018-Jun-17 03:01N 05°23' W 000°25'0 0.0
2018-Jun-17 02:30N 05°23' W 000°25'0 0.0
2018-Jun-17 02:01N 05°23' W 000°25'0 0.0
2018-Jun-17 01:31N 05°23' W 000°25'0 0.0
2018-Jun-17 01:01N 05°23' W 000°25'0 0.0
2018-Jun-17 00:29N 05°23' W 000°25'0 0.0
2018-Jun-16 23:57N 05°23' W 000°25'0 0.0
2018-Jun-16 23:31N 05°23' W 000°25'0 0.0
2018-Jun-16 23:01N 05°23' W 000°25'0 0.0
2018-Jun-16 22:30N 05°23' W 000°25'0 0.0
2018-Jun-16 22:00N 05°23' W 000°25'12 0.4
2018-Jun-15 13:30N 05°18' W 000°36'0 0.0
2018-Jun-15 12:37N 05°18' W 000°36'0 0.0
2018-Jun-15 12:18N 05°18' W 000°36'0 0.0
2018-Jun-15 12:00N 05°18' W 000°36'0 0.0
2018-Jun-15 11:27N 05°18' W 000°36'5 0.9
2018-Jun-15 05:55N 05°19' W 000°31'4 5.0
2018-Jun-15 05:09N 05°21' W 000°28'1 5.2
2018-Jun-15 05:01N 05°22' W 000°27'0 0.2
2018-Jun-15 04:31N 05°22' W 000°27'0 0.0
2018-Jun-15 03:59N 05°22' W 000°27'0 0.0
2018-Jun-15 03:30N 05°22' W 000°27'0 0.0
2018-Jun-15 03:00N 05°22' W 000°27'0 0.0
2018-Jun-15 02:30N 05°22' W 000°27'5 3.1
2018-Jun-15 01:02N 05°17' W 000°26'35 1.0
2018-Jun-13 14:48N 05°14' E 000°09'310.0
2018-Jun-13 14:30N 05°17' E 000°08'5 9.8
2018-Jun-13 14:01N 05°21' E 000°07'2 3.0
2018-Jun-13 13:31N 05°23' E 000°08'4 8.3
2018-Jun-13 13:00N 05°20' E 000°04'5 9.6
2018-Jun-13 12:30N 05°17' E 000°08'1 1.9
2018-Jun-13 12:00N 05°16' E 000°08'3 5.5
2018-Jun-13 11:30N 05°17' E 000°05'510.3
2018-Jun-13 11:01N 05°18' E 000°00'510.1
2018-Jun-13 10:31N 05°19' W 000°05'510.2
2018-Jun-13 10:00N 05°20' W 000°10'510.3
2018-Jun-13 09:30N 05°21' W 000°15'510.3
2018-Jun-13 09:00N 05°22' W 000°20'5 9.3
2018-Jun-13 08:26N 05°24' W 000°25'2 3.4
2018-Jun-13 07:58N 05°24' W 000°26'0 0.1
2018-Jun-13 07:23N 05°24' W 000°26'1 1.8
2018-Jun-13 06:49N 05°24' W 000°25'0 0.2
2018-Jun-13 06:30N 05°24' W 000°25'1 1.5
2018-Jun-13 06:01N 05°23' W 000°26'1 1.0
2018-Jun-13 05:25N 05°23' W 000°26'0 0.0
2018-Jun-13 05:00N 05°23' W 000°26'0 0.0
2018-Jun-13 04:30N 05°23' W 000°26'0 0.0
2018-Jun-13 04:00N 05°23' W 000°26'0 0.0
2018-Jun-13 03:28N 05°23' W 000°26'0 0.0
2018-Jun-13 03:00N 05°23' W 000°26'0 0.0
2018-Jun-13 02:31N 05°23' W 000°26'0 0.0
2018-Jun-13 02:01N 05°23' W 000°26'0 0.0
2018-Jun-13 01:27N 05°23' W 000°26'0 0.0
2018-Jun-13 01:00N 05°23' W 000°26'0 0.0
2018-Jun-13 00:24N 05°23' W 000°26'0 0.0
2018-Jun-13 00:00N 05°23' W 000°26'0 0.0
2018-Jun-12 23:30N 05°23' W 000°26'0 0.0
2018-Jun-12 23:00N 05°23' W 000°26'0 0.0
2018-Jun-12 22:31N 05°23' W 000°26'0 0.0
2018-Jun-12 22:00N 05°23' W 000°26'0 0.0
2018-Jun-12 21:28N 05°23' W 000°26'0 0.0
2018-Jun-12 21:01N 05°23' W 000°26'0 0.0
2018-Jun-12 20:31N 05°23' W 000°26'0 0.0
2018-Jun-12 20:00N 05°23' W 000°26'0 0.0
2018-Jun-12 19:31N 05°23' W 000°26'0 0.0
2018-Jun-12 19:00N 05°23' W 000°26'0 0.0
2018-Jun-12 18:31N 05°23' W 000°26'0 0.0
2018-Jun-12 18:00N 05°23' W 000°26'0 0.5
2018-Jun-12 17:29N 05°23' W 000°25'  
Track history (hours):
 
Tides and Currents Weather Stations Pressure Air Temp Water Temp Dewpoint Dewpoint Depression Visibility Wind Speed Wind Dir Waves Ship Positions

Trust_79

Last reported at 2018-Jun-22 02:30 UTC. Time now 2018-Jun-22 07:36 UTC.
Position N 05°15' W 000°38'.

Length 54 m.

Type: Fishing. MMSI: 627850000.

Date/timePositionNaut miles runAvg speedWind from/ knotsBaromVisibWave heightAir tempDewpointWater temp
2018-Jun-22 02:30N 05°15' W 000°38'0 0.0
2018-Jun-22 01:54N 05°15' W 000°38'0 0.0
2018-Jun-22 01:30N 05°15' W 000°38'0 0.0
2018-Jun-22 00:18N 05°15' W 000°38'0 0.0
2018-Jun-21 23:48N 05°15' W 000°38'2 0.1
2018-Jun-21 06:10N 05°15' W 000°37'0 0.0
2018-Jun-19 23:07N 05°16' W 000°37'0 0.0
2018-Jun-19 22:34N 05°16' W 000°37'0 0.0
2018-Jun-19 21:57N 05°16' W 000°37'0 0.0
2018-Jun-19 21:29N 05°16' W 000°37'0 0.0
2018-Jun-19 10:22N 05°16' W 000°36'1 0.2
2018-Jun-19 06:58N 05°15' W 000°37'1 2.1
2018-Jun-19 06:31N 05°15' W 000°38'3 5.2
2018-Jun-19 05:58N 05°17' W 000°36'0 0.0
2018-Jun-19 05:30N 05°17' W 000°36'0 0.0
2018-Jun-19 03:52N 05°17' W 000°36'0 0.0
2018-Jun-19 03:30N 05°17' W 000°36'0 0.0
2018-Jun-19 03:01N 05°17' W 000°36'0 0.0
2018-Jun-19 02:29N 05°17' W 000°36'8 0.4
2018-Jun-18 07:03N 05°21' W 000°29'1 9.0
2018-Jun-18 06:58N 05°22' W 000°28'4 5.2
2018-Jun-18 06:14N 05°23' W 000°25'0 0.2
2018-Jun-18 05:59N 05°23' W 000°25'5 0.3
2018-Jun-17 09:44N 05°18' W 000°23'2 9.0
2018-Jun-17 09:30N 05°20' W 000°22'5 9.1
2018-Jun-17 09:00N 05°25' W 000°22'1 3.0
2018-Jun-17 08:31N 05°25' W 000°24'2 3.0
2018-Jun-17 07:48N 05°24' W 000°25'1 1.9
2018-Jun-17 07:06N 05°23' W 000°26'1 5.9
2018-Jun-17 06:57N 05°23' W 000°25'0 0.8
2018-Jun-17 06:25N 05°23' W 000°25'0 0.9
2018-Jun-17 06:00N 05°23' W 000°25'0 0.1
2018-Jun-17 05:30N 05°23' W 000°25'0 0.0
2018-Jun-17 05:01N 05°23' W 000°25'0 0.0
2018-Jun-17 04:30N 05°23' W 000°25'0 0.0
2018-Jun-17 04:00N 05°23' W 000°25'0 0.0
2018-Jun-17 03:31N 05°23' W 000°25'0 0.0
2018-Jun-17 03:01N 05°23' W 000°25'0 0.0
2018-Jun-17 02:30N 05°23' W 000°25'0 0.0
2018-Jun-17 02:01N 05°23' W 000°25'0 0.0
2018-Jun-17 01:31N 05°23' W 000°25'0 0.0
2018-Jun-17 01:01N 05°23' W 000°25'0 0.0
2018-Jun-17 00:29N 05°23' W 000°25'0 0.0
2018-Jun-16 23:57N 05°23' W 000°25'0 0.0
2018-Jun-16 23:31N 05°23' W 000°25'0 0.0
2018-Jun-16 23:01N 05°23' W 000°25'0 0.0
2018-Jun-16 22:30N 05°23' W 000°25'0 0.0
2018-Jun-16 22:00N 05°23' W 000°25'12 0.4
2018-Jun-15 13:30N 05°18' W 000°36'0 0.0
2018-Jun-15 12:37N 05°18' W 000°36'0 0.0
2018-Jun-15 12:18N 05°18' W 000°36'0 0.0
2018-Jun-15 12:00N 05°18' W 000°36'0 0.0
2018-Jun-15 11:27N 05°18' W 000°36'5 0.9
2018-Jun-15 05:55N 05°19' W 000°31'4 5.0
2018-Jun-15 05:09N 05°21' W 000°28'1 5.2
2018-Jun-15 05:01N 05°22' W 000°27'0 0.2
2018-Jun-15 04:31N 05°22' W 000°27'0 0.0
2018-Jun-15 03:59N 05°22' W 000°27'0 0.0
2018-Jun-15 03:30N 05°22' W 000°27'0 0.0
2018-Jun-15 03:00N 05°22' W 000°27'0 0.0
2018-Jun-15 02:30N 05°22' W 000°27'5 3.1
2018-Jun-15 01:02N 05°17' W 000°26'35 1.0
2018-Jun-13 14:48N 05°14' E 000°09'310.0
2018-Jun-13 14:30N 05°17' E 000°08'5 9.8
2018-Jun-13 14:01N 05°21' E 000°07'2 3.0
2018-Jun-13 13:31N 05°23' E 000°08'4 8.3
2018-Jun-13 13:00N 05°20' E 000°04'5 9.6
2018-Jun-13 12:30N 05°17' E 000°08'1 1.9
2018-Jun-13 12:00N 05°16' E 000°08'3 5.5
2018-Jun-13 11:30N 05°17' E 000°05'510.3
2018-Jun-13 11:01N 05°18' E 000°00'510.1
2018-Jun-13 10:31N 05°19' W 000°05'510.2
2018-Jun-13 10:00N 05°20' W 000°10'510.3
2018-Jun-13 09:30N 05°21' W 000°15'510.3
2018-Jun-13 09:00N 05°22' W 000°20'5 9.3
2018-Jun-13 08:26N 05°24' W 000°25'2 3.4
2018-Jun-13 07:58N 05°24' W 000°26'0 0.1
2018-Jun-13 07:23N 05°24' W 000°26'1 1.8
2018-Jun-13 06:49N 05°24' W 000°25'0 0.2
2018-Jun-13 06:30N 05°24' W 000°25'1 1.5
2018-Jun-13 06:01N 05°23' W 000°26'1 1.0
2018-Jun-13 05:25N 05°23' W 000°26'0 0.0
2018-Jun-13 05:00N 05°23' W 000°26'0 0.0
2018-Jun-13 04:30N 05°23' W 000°26'0 0.0
2018-Jun-13 04:00N 05°23' W 000°26'0 0.0
2018-Jun-13 03:28N 05°23' W 000°26'0 0.0
2018-Jun-13 03:00N 05°23' W 000°26'0 0.0
2018-Jun-13 02:31N 05°23' W 000°26'0 0.0
2018-Jun-13 02:01N 05°23' W 000°26'0 0.0
2018-Jun-13 01:27N 05°23' W 000°26'0 0.0
2018-Jun-13 01:00N 05°23' W 000°26'0 0.0
2018-Jun-13 00:24N 05°23' W 000°26'0 0.0
2018-Jun-13 00:00N 05°23' W 000°26'0 0.0
2018-Jun-12 23:30N 05°23' W 000°26'0 0.0
2018-Jun-12 23:00N 05°23' W 000°26'0 0.0
2018-Jun-12 22:31N 05°23' W 000°26'0 0.0
2018-Jun-12 22:00N 05°23' W 000°26'0 0.0
2018-Jun-12 21:28N 05°23' W 000°26'0 0.0
2018-Jun-12 21:01N 05°23' W 000°26'0 0.0
2018-Jun-12 20:31N 05°23' W 000°26'0 0.0
2018-Jun-12 20:00N 05°23' W 000°26'0 0.0
2018-Jun-12 19:31N 05°23' W 000°26'0 0.0
2018-Jun-12 19:00N 05°23' W 000°26'0 0.0
2018-Jun-12 18:31N 05°23' W 000°26'0 0.0
2018-Jun-12 18:00N 05°23' W 000°26'0 0.5
2018-Jun-12 17:29N 05°23' W 000°25'  

Dump ship's entire track history